East Prospect, Pennsylvania
Current Conditions -  °F | °C
As of 6:53 PM on Monday 24 Nov 2014 (Local Time) from KLNS Reporting Station
Clear Clear  
Wind Chill: 62°   Ceiling: Unl
Heat Index: 62°   Visibility: 10mi
Dew Point: 51°   Wind: 8mph
Humidity: 67%   Direction: 190°S
Pressure: 29.65"   Gusts: NA
Location:  39.97°N, 76.52°W
Report Text: KLNS 242353Z 19007KT 10SM CLR 17/11 A2965 RMK AO2 SLP037 T01670106 10206 20161 51016
Loading
Personal Weather Stations






























Interactive Weather Map New forecast layout! Learn more

10-Day Weather Forecast

Advertisements
Track Severe Weather on mobile